createdAt,value
2019-04-09T00:00:04.112Z,22.37
2019-04-09T00:02:34.209Z,20.30
2019-04-09T00:05:02.672Z,21.70
2019-04-09T00:07:30.716Z,20.63
2019-04-09T00:09:59.558Z,19.83
2019-04-09T00:12:28.211Z,20.03
2019-04-09T00:14:56.675Z,19.63
2019-04-09T00:17:25.246Z,20.00
2019-04-09T00:19:53.920Z,20.87
2019-04-09T00:22:22.425Z,21.00
2019-04-09T00:24:50.891Z,21.60
2019-04-09T00:27:19.355Z,22.43
2019-04-09T00:29:48.221Z,21.97
2019-04-09T00:32:17.125Z,22.20
2019-04-09T00:34:46.526Z,22.30
2019-04-09T00:37:15.159Z,21.60
2019-04-09T00:39:43.744Z,19.67
2019-04-09T00:42:13.075Z,20.97
2019-04-09T00:44:41.649Z,20.20
2019-04-09T00:47:10.180Z,21.77
2019-04-09T00:49:38.723Z,21.63
2019-04-09T00:52:07.186Z,22.17
2019-04-09T00:54:35.714Z,23.60
2019-04-09T00:57:08.814Z,23.30
2019-04-09T00:59:34.524Z,21.40
2019-04-09T01:02:03.367Z,21.10
2019-04-09T01:04:32.374Z,22.20
2019-04-09T01:07:00.978Z,20.70
2019-04-09T01:09:29.496Z,21.60
2019-04-09T01:11:57.939Z,20.80
2019-04-09T01:14:27.362Z,21.83
2019-04-09T01:16:56.317Z,21.33
2019-04-09T01:19:24.916Z,21.00
2019-04-09T01:21:54.156Z,23.20
2019-04-09T01:24:31.631Z,23.73
2019-04-09T01:27:13.633Z,22.93
2019-04-09T01:29:41.179Z,22.70
2019-04-09T01:32:20.367Z,23.57
2019-04-09T01:35:07.611Z,23.47
2019-04-09T01:37:41.446Z,23.70
2019-04-09T01:40:27.813Z,21.07
2019-04-09T01:43:14.230Z,20.50
2019-04-09T01:46:00.653Z,20.80
2019-04-09T01:48:42.733Z,21.00
2019-04-09T01:51:12.847Z,20.00
2019-04-09T01:53:42.943Z,21.03
2019-04-09T01:56:31.324Z,21.37
2019-04-09T01:59:13.871Z,23.00
2019-04-09T02:01:50.666Z,21.60
2019-04-09T02:04:24.856Z,21.33
2019-04-09T02:06:55.354Z,22.90
2019-04-09T02:09:25.486Z,24.60
2019-04-09T02:11:55.681Z,23.90
2019-04-09T02:14:25.828Z,24.27
2019-04-09T02:16:55.982Z,24.87
2019-04-09T02:19:31.887Z,22.53
2019-04-09T02:22:18.232Z,24.30
2019-04-09T02:25:04.041Z,24.83
2019-04-09T02:27:40.002Z,24.23
2019-04-09T02:30:08.719Z,25.67
2019-04-09T02:32:56.339Z,27.50
2019-04-09T02:35:41.613Z,25.00
2019-04-09T02:38:26.488Z,25.40
2019-04-09T02:41:13.416Z,26.03
2019-04-09T02:43:50.059Z,25.27
2019-04-09T02:46:20.391Z,27.30
2019-04-09T02:48:50.564Z,25.77
2019-04-09T02:51:29.819Z,24.43
2019-04-09T02:54:00.737Z,23.50
2019-04-09T02:56:39.509Z,24.90
2019-04-09T02:59:24.570Z,24.10
2019-04-09T03:02:03.425Z,23.47
2019-04-09T03:04:45.211Z,25.47
2019-04-09T03:07:27.820Z,23.43
2019-04-09T03:09:57.945Z,25.40
2019-04-09T03:12:31.436Z,25.20
2019-04-09T03:15:11.411Z,27.80
2019-04-09T03:17:50.705Z,27.57
2019-04-09T03:20:20.790Z,26.50
2019-04-09T03:22:56.371Z,25.23
2019-04-09T03:25:26.555Z,26.70
2019-04-09T03:28:14.961Z,26.67
2019-04-09T03:30:44.503Z,25.70
2019-04-09T03:33:31.317Z,26.63
2019-04-09T03:36:17.599Z,24.70
2019-04-09T03:38:53.538Z,27.40
2019-04-09T03:41:39.760Z,27.13
2019-04-09T03:44:13.004Z,27.50
2019-04-09T03:46:59.451Z,28.17
2019-04-09T03:49:38.730Z,26.47
2019-04-09T03:52:08.849Z,28.00
2019-04-09T03:54:44.888Z,23.20
2019-04-09T03:57:32.816Z,25.03
2019-04-09T04:00:02.938Z,25.10
2019-04-09T04:02:36.113Z,24.77
2019-04-09T04:05:07.856Z,23.90
2019-04-09T04:07:37.950Z,25.90
2019-04-09T04:10:17.625Z,25.30
2019-04-09T04:12:53.746Z,25.90
2019-04-09T04:15:40.995Z,24.70
2019-04-09T04:18:27.671Z,25.70
2019-04-09T04:21:00.745Z,26.50
2019-04-09T04:23:31.190Z,25.20
2019-04-09T04:26:04.106Z,23.43
2019-04-09T04:28:50.315Z,24.60
2019-04-09T04:31:30.152Z,22.93
2019-04-09T04:34:08.923Z,22.77
2019-04-09T04:36:41.967Z,23.97
2019-04-09T04:39:18.727Z,22.80
2019-04-09T04:42:05.475Z,22.77
2019-04-09T04:44:35.759Z,24.37
2019-04-09T04:47:09.709Z,21.60
2019-04-09T04:49:43.258Z,23.00
2019-04-09T04:52:13.463Z,21.77
2019-04-09T04:55:00.132Z,22.43
2019-04-09T04:57:33.216Z,20.50
2019-04-09T05:00:15.458Z,21.90
2019-04-09T05:03:04.124Z,22.30
2019-04-09T05:05:35.166Z,22.27
2019-04-09T05:08:05.597Z,23.20
2019-04-09T05:10:35.767Z,21.67
2019-04-09T05:13:24.640Z,22.53
2019-04-09T05:16:06.807Z,22.80
2019-04-09T05:18:37.645Z,27.10
2019-04-09T05:21:08.111Z,29.07
2019-04-09T05:23:38.335Z,29.67
2019-04-09T05:26:24.583Z,28.40
2019-04-09T05:29:01.998Z,31.10
2019-04-09T05:31:43.264Z,30.20
2019-04-09T05:34:13.628Z,29.47
2019-04-09T05:36:44.448Z,30.00
2019-04-09T05:39:15.697Z,29.07
2019-04-09T05:41:58.392Z,27.87
2019-04-09T05:44:29.383Z,25.90
2019-04-09T05:47:05.265Z,24.70
2019-04-09T05:49:44.405Z,24.27
2019-04-09T05:52:20.801Z,26.57
2019-04-09T05:54:56.728Z,27.10
2019-04-09T05:57:42.387Z,25.00
2019-04-09T06:00:22.070Z,26.93
2019-04-09T06:02:52.167Z,26.57
2019-04-09T06:05:36.858Z,26.70
2019-04-09T06:08:13.584Z,28.33
2019-04-09T06:10:42.897Z,28.13
2019-04-09T06:13:11.583Z,27.90
2019-04-09T06:15:40.033Z,28.17
2019-04-09T06:18:08.512Z,27.77
2019-04-09T06:20:36.951Z,29.70
2019-04-09T06:23:07.814Z,29.60
2019-04-09T06:25:36.295Z,32.70
2019-04-09T06:28:05.811Z,28.13
2019-04-09T06:30:34.335Z,26.43
2019-04-09T06:33:10.148Z,27.47
2019-04-09T06:35:51.736Z,29.50
2019-04-09T06:38:21.912Z,36.47
2019-04-09T06:40:55.025Z,31.07
2019-04-09T06:43:25.432Z,44.60
2019-04-09T06:45:58.257Z,43.80
2019-04-09T06:48:44.495Z,41.77
2019-04-09T06:51:36.791Z,46.53
2019-04-09T06:54:19.991Z,45.43
2019-04-09T06:56:50.075Z,46.10
2019-04-09T06:59:35.096Z,44.83
2019-04-09T07:02:19.745Z,49.70
2019-04-09T07:05:02.121Z,48.47
2019-04-09T07:07:32.275Z,47.27
2019-04-09T07:10:11.940Z,48.87
2019-04-09T07:12:47.799Z,45.10
2019-04-09T07:15:29.530Z,44.40
2019-04-09T07:17:59.684Z,50.50
2019-04-09T07:20:41.290Z,46.00
2019-04-09T07:23:20.201Z,47.70
2019-04-09T07:26:05.574Z,46.27
2019-04-09T07:28:37.898Z,47.03
2019-04-09T07:31:27.968Z,47.37
2019-04-09T07:33:59.923Z,45.03
2019-04-09T07:36:36.398Z,44.33
2019-04-09T07:39:24.490Z,43.87
2019-04-09T07:41:52.514Z,45.97
2019-04-09T07:44:28.832Z,45.13
2019-04-09T07:47:13.906Z,44.70
2019-04-09T07:50:03.711Z,41.83
2019-04-09T07:52:41.871Z,44.03
2019-04-09T07:55:17.886Z,40.93
2019-04-09T07:57:48.821Z,40.80
2019-04-09T08:00:34.979Z,40.80
2019-04-09T08:03:11.273Z,41.50
2019-04-09T08:05:58.565Z,40.07
2019-04-09T08:08:32.165Z,39.27
2019-04-09T08:11:09.632Z,40.63
2019-04-09T08:13:57.342Z,38.80
2019-04-09T08:16:30.261Z,40.40
2019-04-09T08:19:19.892Z,40.07
2019-04-09T08:21:48.732Z,39.10
2019-04-09T08:24:22.733Z,40.23
2019-04-09T08:26:53.334Z,37.90
2019-04-09T08:29:42.653Z,37.93
2019-04-09T08:32:18.485Z,38.60
2019-04-09T08:34:57.415Z,33.80
2019-04-09T08:37:30.370Z,35.93
2019-04-09T08:40:03.806Z,36.60
2019-04-09T08:42:43.326Z,34.77
2019-04-09T08:45:20.628Z,34.30
2019-04-09T08:48:08.512Z,34.10
2019-04-09T08:50:45.105Z,34.00
2019-04-09T08:53:31.967Z,37.67
2019-04-09T08:56:06.789Z,33.00
2019-04-09T08:58:36.943Z,34.30
2019-04-09T09:03:53.159Z,32.97
2019-04-09T09:06:29.317Z,32.57
2019-04-09T09:08:59.634Z,30.83
2019-04-09T09:11:32.468Z,31.10
2019-04-09T09:14:13.602Z,30.70
2019-04-09T09:17:04.933Z,30.30
2019-04-09T09:19:35.541Z,30.73
2019-04-09T09:22:18.444Z,32.40
2019-04-09T09:25:04.036Z,30.27
2019-04-09T09:27:44.870Z,31.37
2019-04-09T09:30:52.414Z,31.77
2019-04-09T09:33:08.611Z,31.17
2019-04-09T09:35:52.370Z,30.97
2019-04-09T09:38:28.411Z,30.40
2019-04-09T09:41:16.634Z,29.90
2019-04-09T09:43:49.148Z,31.67
2019-04-09T09:46:30.054Z,29.23
2019-04-09T09:49:02.078Z,29.43
2019-04-09T09:51:33.502Z,31.13
2019-04-09T09:54:16.706Z,30.70
2019-04-09T09:56:47.896Z,31.67
2019-04-09T09:59:26.740Z,31.20
2019-04-09T10:02:00.978Z,31.37
2019-04-09T10:04:34.471Z,29.60
2019-04-09T10:07:14.804Z,29.60
2019-04-09T10:09:57.820Z,30.50
2019-04-09T10:12:41.027Z,28.87
2019-04-09T10:15:16.568Z,29.70
2019-04-09T10:17:43.448Z,28.57
2019-04-09T10:20:16.310Z,27.27
2019-04-09T10:23:02.877Z,27.20
2019-04-09T10:25:36.001Z,28.47
2019-04-09T10:28:07.151Z,30.47
2019-04-09T10:30:41.891Z,27.00
2019-04-09T10:33:13.335Z,28.40
2019-04-09T10:36:03.026Z,26.63
2019-04-09T10:38:39.126Z,29.57
2019-04-09T10:41:31.536Z,26.83
2019-04-09T10:43:50.587Z,28.80
2019-04-09T10:46:30.894Z,27.50
2019-04-09T10:49:02.397Z,25.90
2019-04-09T10:51:33.517Z,26.00
2019-04-09T10:54:06.824Z,27.87
2019-04-09T10:56:38.695Z,27.77
2019-04-09T10:59:17.867Z,27.37
2019-04-09T11:01:55.673Z,26.50
2019-04-09T11:04:41.810Z,28.37
2019-04-09T11:07:31.560Z,25.87
2019-04-09T11:10:00.656Z,24.33
2019-04-09T11:12:31.224Z,25.13
2019-04-09T11:15:18.776Z,26.83
2019-04-09T11:17:53.110Z,25.20
2019-04-09T11:20:40.287Z,27.60
2019-04-09T11:23:15.050Z,22.07
2019-04-09T11:25:51.646Z,25.23
2019-04-09T11:28:24.859Z,23.83
2019-04-09T11:31:07.033Z,22.63
2019-04-09T11:33:46.781Z,24.93
2019-04-09T11:36:19.844Z,22.37
2019-04-09T11:38:50.029Z,24.33
2019-04-09T11:41:21.036Z,23.33
2019-04-09T11:43:54.313Z,22.10
2019-04-09T11:46:36.873Z,21.57
2019-04-09T11:49:23.328Z,21.33
2019-04-09T11:51:54.178Z,20.20
2019-04-09T11:54:24.811Z,21.53
2019-04-09T11:56:55.988Z,20.87
2019-04-09T11:59:31.283Z,20.97
2019-04-09T12:02:07.060Z,22.83
2019-04-09T12:04:38.203Z,19.03
2019-04-09T12:07:11.483Z,19.43
2019-04-09T12:09:59.815Z,20.30
2019-04-09T12:12:47.876Z,21.50
2019-04-09T12:15:37.136Z,17.77
2019-04-09T12:18:13.066Z,19.73
2019-04-09T12:20:55.033Z,17.40
2019-04-09T12:23:28.079Z,18.63
2019-04-09T12:26:16.787Z,19.60
2019-04-09T12:28:47.169Z,19.37
2019-04-09T12:31:23.900Z,16.77
2019-04-09T12:34:00.010Z,16.57
2019-04-09T12:36:33.135Z,16.60
2019-04-09T12:39:18.134Z,19.70
2019-04-09T12:42:02.842Z,16.13
2019-04-09T12:44:42.374Z,17.33
2019-04-09T12:47:28.554Z,19.10
2019-04-09T12:50:07.700Z,16.80
2019-04-09T12:52:37.903Z,16.47
2019-04-09T12:55:21.073Z,15.00
2019-04-09T12:57:52.278Z,16.40
2019-04-09T13:00:27.921Z,16.70
2019-04-09T13:03:13.746Z,18.90
2019-04-09T13:05:52.861Z,19.50
2019-04-09T13:08:28.582Z,18.20
2019-04-09T13:11:02.315Z,17.13
2019-04-09T13:13:41.252Z,18.37
2019-04-09T13:16:11.336Z,17.50
2019-04-09T13:18:45.670Z,16.27
2019-04-09T13:21:16.998Z,16.37
2019-04-09T13:23:53.323Z,16.27
2019-04-09T13:26:38.494Z,17.00
2019-04-09T13:29:17.554Z,16.20
2019-04-09T13:31:59.480Z,17.37
2019-04-09T13:34:45.928Z,16.97
2019-04-09T13:37:18.906Z,16.13
2019-04-09T13:39:52.437Z,17.83
2019-04-09T13:42:31.695Z,18.03
2019-04-09T13:45:07.448Z,17.50
2019-04-09T13:47:43.787Z,17.07
2019-04-09T13:50:26.524Z,18.60
2019-04-09T13:52:56.026Z,19.77
2019-04-09T13:55:24.708Z,19.03
2019-04-09T13:57:54.104Z,17.83
2019-04-09T14:00:23.037Z,20.67
2019-04-09T14:02:59.067Z,18.13
2019-04-09T14:05:26.279Z,18.00
2019-04-09T14:07:54.954Z,17.97
2019-04-09T14:10:23.434Z,18.13
2019-04-09T14:12:52.113Z,18.47
2019-04-09T14:15:20.761Z,19.50
2019-04-09T14:17:49.389Z,19.53
2019-04-09T14:20:18.140Z,19.73
2019-04-09T14:22:47.687Z,19.50
2019-04-09T14:25:16.921Z,19.50
2019-04-09T14:27:45.694Z,20.13
2019-04-09T14:30:15.936Z,17.80
2019-04-09T14:32:44.731Z,20.07
2019-04-09T14:35:13.852Z,19.43
2019-04-09T14:37:43.871Z,20.60
2019-04-09T14:40:12.698Z,19.43
2019-04-09T14:42:42.239Z,19.53
2019-04-09T14:45:11.603Z,18.77
2019-04-09T14:47:42.749Z,18.47
2019-04-09T14:50:10.976Z,19.57
2019-04-09T14:52:50.746Z,19.63
2019-04-09T14:55:09.855Z,18.00
2019-04-09T14:57:38.379Z,19.40
2019-04-09T15:00:12.075Z,18.70
2019-04-09T15:02:40.817Z,20.57
2019-04-09T15:05:09.889Z,20.10
2019-04-09T15:07:39.521Z,19.30
2019-04-09T15:10:09.270Z,18.60
2019-04-09T15:12:38.016Z,19.07
2019-04-09T15:15:08.651Z,19.50
2019-04-09T15:17:37.464Z,20.20
2019-04-09T15:20:06.920Z,19.03
2019-04-09T15:22:36.657Z,22.23
2019-04-09T15:25:07.123Z,19.43
2019-04-09T15:27:36.864Z,21.10
2019-04-09T15:30:10.736Z,19.93
2019-04-09T15:32:39.731Z,19.07
2019-04-09T15:35:08.907Z,21.00
2019-04-09T15:37:37.618Z,21.47
2019-04-09T15:40:08.661Z,20.67
2019-04-09T15:42:37.860Z,20.10
2019-04-09T15:45:07.473Z,21.80
2019-04-09T15:47:36.000Z,19.70
2019-04-09T15:50:08.170Z,20.17
2019-04-09T15:52:38.657Z,20.20
2019-04-09T15:55:09.531Z,21.63
2019-04-09T15:57:37.662Z,20.37
2019-04-09T16:00:08.969Z,19.67
2019-04-09T16:02:38.486Z,20.73
2019-04-09T16:05:07.221Z,19.70
2019-04-09T16:07:36.175Z,19.07
2019-04-09T16:10:06.410Z,20.57
2019-04-09T16:12:34.874Z,20.27
2019-04-09T16:15:04.831Z,20.47
2019-04-09T16:17:33.362Z,20.50
2019-04-09T16:20:01.829Z,22.17
2019-04-09T16:22:30.654Z,21.53
2019-04-09T16:24:59.403Z,20.03
2019-04-09T16:27:28.213Z,21.40
2019-04-09T16:29:56.968Z,21.50
2019-04-09T16:32:25.943Z,20.30
2019-04-09T16:34:54.712Z,21.37
2019-04-09T16:37:25.719Z,23.47
2019-04-09T16:39:54.590Z,23.10
2019-04-09T16:42:33.076Z,22.03
2019-04-09T16:45:00.528Z,21.90
2019-04-09T16:47:24.385Z,21.37
2019-04-09T16:49:54.124Z,22.03
2019-04-09T16:52:22.792Z,20.30
2019-04-09T16:54:51.526Z,20.50
2019-04-09T16:57:20.099Z,20.80
2019-04-09T16:59:48.565Z,20.30
2019-04-09T17:02:17.005Z,22.00
2019-04-09T17:04:45.552Z,22.00
2019-04-09T17:07:14.097Z,21.40
2019-04-09T17:09:43.531Z,21.60
2019-04-09T17:12:13.344Z,21.80
2019-04-09T17:14:42.165Z,21.50
2019-04-09T17:17:11.270Z,22.83
2019-04-09T17:19:39.872Z,21.80
2019-04-09T17:22:08.452Z,21.33
2019-04-09T17:24:37.158Z,19.97
2019-04-09T17:27:05.808Z,20.57
2019-04-09T17:29:35.246Z,20.80
2019-04-09T17:32:05.307Z,22.30
2019-04-09T17:34:35.618Z,20.93
2019-04-09T17:37:05.013Z,21.20
2019-04-09T17:39:33.805Z,21.37
2019-04-09T17:42:08.368Z,23.07
2019-04-09T17:44:33.289Z,22.40
2019-04-09T17:47:02.004Z,22.87
2019-04-09T17:49:31.283Z,20.87
2019-04-09T17:51:59.860Z,22.37
2019-04-09T17:54:28.404Z,22.97
2019-04-09T17:56:57.070Z,21.73
2019-04-09T17:59:25.735Z,20.00
2019-04-09T18:01:54.302Z,22.87
2019-04-09T18:04:34.758Z,21.63
2019-04-09T18:06:53.693Z,22.63
2019-04-09T18:09:22.575Z,24.07
2019-04-09T18:11:51.376Z,23.77
2019-04-09T18:14:20.621Z,21.43
2019-04-09T18:16:49.286Z,21.10
2019-04-09T18:19:18.949Z,23.40
2019-04-09T18:21:47.611Z,22.57
2019-04-09T18:24:17.151Z,23.20
2019-04-09T18:26:45.762Z,24.00
2019-04-09T18:29:15.188Z,24.97
2019-04-09T18:31:44.988Z,23.10
2019-04-09T18:34:13.588Z,22.73
2019-04-09T18:36:42.957Z,23.90
2019-04-09T18:39:12.955Z,23.50
2019-04-09T18:41:42.163Z,22.80
2019-04-09T18:44:10.641Z,21.63
2019-04-09T18:46:39.862Z,21.90
2019-04-09T18:49:08.720Z,23.33
2019-04-09T18:51:37.280Z,22.70
2019-04-09T18:54:05.783Z,22.20
2019-04-09T18:56:34.274Z,21.60
2019-04-09T18:59:03.240Z,22.03
2019-04-09T19:01:31.828Z,21.90
2019-04-09T19:04:08.722Z,22.13
2019-04-09T19:06:30.472Z,21.40
2019-04-09T19:08:59.239Z,22.50
2019-04-09T19:11:27.761Z,19.33
2019-04-09T19:13:56.220Z,22.20
2019-04-09T19:16:24.680Z,20.57
2019-04-09T19:18:54.039Z,21.43
2019-04-09T19:21:22.778Z,19.33
2019-04-09T19:23:51.311Z,20.10
2019-04-09T19:26:19.954Z,19.47
2019-04-09T19:28:48.620Z,20.50
2019-04-09T19:31:17.618Z,19.10
2019-04-09T19:33:46.206Z,19.37
2019-04-09T19:36:14.780Z,20.57
2019-04-09T19:38:43.214Z,19.50
2019-04-09T19:41:11.982Z,19.77
2019-04-09T19:43:40.826Z,18.80
2019-04-09T19:46:09.483Z,17.60
2019-04-09T19:48:38.161Z,19.00
2019-04-09T19:51:07.026Z,18.00
2019-04-09T19:53:36.028Z,17.80
2019-04-09T19:56:04.734Z,18.60
2019-04-09T19:58:41.997Z,18.00
2019-04-09T20:01:03.886Z,17.00
2019-04-09T20:03:32.426Z,18.57
2019-04-09T20:06:01.444Z,17.07
2019-04-09T20:08:29.959Z,17.67
2019-04-09T20:10:59.168Z,17.87
2019-04-09T20:13:28.002Z,16.40
2019-04-09T20:15:56.867Z,16.57
2019-04-09T20:18:25.975Z,18.00
2019-04-09T20:20:54.488Z,16.90
2019-04-09T20:23:23.678Z,16.00
2019-04-09T20:25:53.733Z,16.93
2019-04-09T20:28:22.274Z,16.57
2019-04-09T20:30:50.810Z,15.77
2019-04-09T20:33:19.341Z,15.40
2019-04-09T20:35:51.940Z,16.37
2019-04-09T20:38:18.635Z,16.30
2019-04-09T20:40:48.181Z,16.50
2019-04-09T20:43:16.742Z,14.87
2019-04-09T20:45:45.216Z,15.27
2019-04-09T20:48:17.288Z,15.40
2019-04-09T20:50:46.153Z,17.97
2019-04-09T20:53:15.700Z,14.87
2019-04-09T20:55:44.403Z,16.00
2019-04-09T20:58:14.810Z,15.90
2019-04-09T21:00:59.987Z,15.23
2019-04-09T21:03:53.104Z,16.13
2019-04-09T21:06:12.249Z,17.67
2019-04-09T21:08:41.960Z,16.93
2019-04-09T21:11:10.515Z,16.50
2019-04-09T21:13:39.380Z,16.20
2019-04-09T21:16:08.560Z,17.17
2019-04-09T21:18:37.094Z,14.77
2019-04-09T21:21:05.782Z,16.60
2019-04-09T21:23:34.676Z,16.30
2019-04-09T21:26:05.266Z,14.07
2019-04-09T21:28:33.788Z,16.50
2019-04-09T21:31:02.605Z,14.30
2019-04-09T21:33:31.611Z,15.80
2019-04-09T21:36:07.781Z,14.10
2019-04-09T21:38:30.294Z,15.47
2019-04-09T21:40:58.758Z,14.47
2019-04-09T21:43:27.667Z,14.87
2019-04-09T21:45:56.251Z,15.37
2019-04-09T21:48:25.214Z,14.43
2019-04-09T21:50:53.782Z,14.93
2019-04-09T21:53:22.240Z,14.60
2019-04-09T21:55:51.021Z,13.20
2019-04-09T21:58:20.377Z,14.47
2019-04-09T22:00:53.769Z,13.90
2019-04-09T22:03:28.994Z,12.67
2019-04-09T22:05:56.376Z,14.30
2019-04-09T22:08:24.892Z,13.83
2019-04-09T22:10:53.938Z,13.10
2019-04-09T22:13:23.175Z,13.30
2019-04-09T22:15:51.805Z,12.40
2019-04-09T22:18:22.552Z,13.33
2019-04-09T22:20:50.442Z,13.73
2019-04-09T22:23:18.884Z,11.30
2019-04-09T22:25:47.397Z,11.47
2019-04-09T22:28:16.359Z,12.60
2019-04-09T22:30:45.446Z,12.30
2019-04-09T22:33:16.533Z,12.50
2019-04-09T22:35:44.176Z,12.60
2019-04-09T22:38:14.691Z,11.80
2019-04-09T22:40:44.174Z,12.80
2019-04-09T22:43:12.799Z,12.60
2019-04-09T22:45:41.928Z,13.33
2019-04-09T22:48:11.601Z,12.33
2019-04-09T22:50:40.217Z,12.20
2019-04-09T22:53:08.667Z,11.87
2019-04-09T22:55:37.134Z,11.50
2019-04-09T22:58:06.649Z,13.63
2019-04-09T23:00:46.619Z,11.87
2019-04-09T23:03:26.189Z,12.13
2019-04-09T23:06:03.712Z,11.33
2019-04-09T23:08:33.878Z,11.60
2019-04-09T23:11:13.132Z,12.50
2019-04-09T23:13:41.897Z,11.90
2019-04-09T23:16:10.861Z,12.43
2019-04-09T23:18:39.400Z,11.90
2019-04-09T23:21:07.916Z,12.60
2019-04-09T23:23:37.354Z,12.20
2019-04-09T23:26:05.951Z,12.43
2019-04-09T23:28:35.166Z,12.20
2019-04-09T23:31:04.220Z,12.43
2019-04-09T23:33:32.728Z,11.43
2019-04-09T23:36:01.184Z,11.43
2019-04-09T23:38:29.718Z,11.00
2019-04-09T23:40:58.177Z,11.63
2019-04-09T23:43:26.666Z,11.07
2019-04-09T23:45:55.179Z,12.90
2019-04-09T23:48:24.281Z,11.40
2019-04-09T23:50:53.975Z,12.20
2019-04-09T23:53:23.171Z,10.90
2019-04-09T23:55:52.200Z,10.63
2019-04-09T23:58:21.654Z,10.97
